ベロオリゾンテ の空港の天気 - METARとTAF

タンクレド・ネヴェス国際空港 ( SBCF / CNF ) - ブラジル ミナスジェライス州ベロオリゾンテ
飛行場実況気象(Metar)
観測時間08/25 16:00 BRT (08/25 19:00 UTC)
風向・風速東南東 5m/s
視程10km以上
天気現象
なし
気温24℃
湿度41%
気圧1023hPa
METARSBCF 251900Z 12009KT CAVOK 24/10 Q1023
過去の天気等 Google飛行場航空写真 Wunderground天気予報

過去48時間のMETAR

飛行場予報(TAF)
発表時間: 8/25 13:00 BRT (8/25 16:00 UTC)
予報対象時間: 25日15時 BRT ~ 26日15時 BRT
風向・風速東 4m/s
視程10km以上
全天の4割程度の雲 雲底高度 1220m
25日16時 BRT ~ 25日18時 BRT に徐々に
視程10km以上
なし
25日19時 BRT ~ 25日21時 BRT に徐々に
風向・風速東南東 4m/s
26日7時 BRT ~ 26日9時 BRT に徐々に
風向・風速東 4m/s
26日11時 BRT ~ 26日13時 BRT に徐々に
風向・風速東北東 4m/s
視程10km以上
全天の4割程度の雲 雲底高度 1070m
TAF SBCF 251600Z 2518/2618 09008KT 9999 SCT040 TN13/2607Z TX26/2617Z
BECMG 2519/2521 CAVOK
BECMG 2522/2524 12008KT
BECMG 2610/2612 09008KT
BECMG 2614/2616 06008KT 9999 SCT035 RMK PEH